createdAt,value
2023-03-24T00:01:19.025Z,3.60
2023-03-24T00:03:49.025Z,3.60
2023-03-24T00:06:18.964Z,3.30
2023-03-24T00:08:48.581Z,3.40
2023-03-24T00:11:18.673Z,3.07
2023-03-24T00:13:50.184Z,3.00
2023-03-24T00:16:19.592Z,3.10
2023-03-24T00:18:53.635Z,3.13
2023-03-24T00:21:24.504Z,3.37
2023-03-24T00:23:55.515Z,2.77
2023-03-24T00:26:25.231Z,2.83
2023-03-24T00:28:53.794Z,2.97
2023-03-24T00:31:22.487Z,3.20
2023-03-24T00:33:51.249Z,2.77
2023-03-24T00:36:21.240Z,2.80
2023-03-24T00:38:50.252Z,3.00
2023-03-24T00:41:21.430Z,2.97
2023-03-24T00:43:50.900Z,2.70
2023-03-24T00:46:29.098Z,2.97
2023-03-24T00:49:02.406Z,2.73
2023-03-24T00:51:32.328Z,2.80
2023-03-24T00:54:01.951Z,2.67
2023-03-24T00:56:34.656Z,2.80
2023-03-24T00:59:03.152Z,2.90
2023-03-24T01:01:36.550Z,3.30
2023-03-24T01:04:06.382Z,2.93
2023-03-24T01:06:36.681Z,3.10
2023-03-24T01:09:06.587Z,3.17
2023-03-24T01:11:39.891Z,2.83
2023-03-24T01:14:08.705Z,2.90
2023-03-24T01:16:36.665Z,3.00
2023-03-24T01:19:05.086Z,2.93
2023-03-24T01:21:35.229Z,3.00
2023-03-24T01:24:05.015Z,2.90
2023-03-24T01:26:33.303Z,3.00
2023-03-24T01:29:02.622Z,2.73
2023-03-24T01:31:30.641Z,2.90
2023-03-24T01:33:58.571Z,2.70
2023-03-24T01:36:26.577Z,2.67
2023-03-24T01:38:54.458Z,2.30
2023-03-24T01:41:22.327Z,2.50
2023-03-24T01:43:50.362Z,2.27
2023-03-24T01:46:21.346Z,2.80
2023-03-24T01:48:53.487Z,2.63
2023-03-24T01:51:24.791Z,2.73
2023-03-24T01:53:55.947Z,2.80
2023-03-24T01:56:24.475Z,2.97
2023-03-24T01:58:59.265Z,2.90
2023-03-24T02:01:41.939Z,2.90
2023-03-24T02:04:28.496Z,2.90
2023-03-24T02:07:09.157Z,2.57
2023-03-24T02:09:37.278Z,3.03
2023-03-24T02:12:05.456Z,2.77
2023-03-24T02:14:35.020Z,2.50
2023-03-24T02:17:21.668Z,2.70
2023-03-24T02:20:13.437Z,2.73
2023-03-24T02:23:20.397Z,2.50
2023-03-24T02:26:13.546Z,2.23
2023-03-24T02:28:46.259Z,2.37
2023-03-24T02:31:24.334Z,2.50
2023-03-24T02:34:21.717Z,2.37
2023-03-24T02:37:27.439Z,2.50
2023-03-24T02:40:11.581Z,2.67
2023-03-24T02:42:46.505Z,2.57
2023-03-24T02:45:22.932Z,2.73
2023-03-24T02:48:02.482Z,2.50
2023-03-24T02:50:32.392Z,2.70
2023-03-24T02:53:06.308Z,2.13
2023-03-24T02:55:41.899Z,2.53
2023-03-24T02:58:16.881Z,2.23
2023-03-24T03:00:52.426Z,2.60
2023-03-24T03:03:28.015Z,2.50
2023-03-24T03:05:58.865Z,2.27
2023-03-24T03:08:29.670Z,2.30
2023-03-24T03:10:59.842Z,2.10
2023-03-24T03:13:31.940Z,2.00
2023-03-24T03:16:05.550Z,2.10
2023-03-24T03:18:39.324Z,2.40
2023-03-24T03:21:11.061Z,2.73
2023-03-24T03:23:41.294Z,2.33
2023-03-24T03:26:13.804Z,2.30
2023-03-24T03:28:49.859Z,2.30
2023-03-24T03:31:23.692Z,2.47
2023-03-24T03:33:54.849Z,2.20
2023-03-24T03:36:26.538Z,2.53
2023-03-24T03:38:57.847Z,2.50
2023-03-24T03:41:27.207Z,2.53
2023-03-24T03:43:55.337Z,3.30
2023-03-24T03:46:23.412Z,3.10
2023-03-24T03:48:51.708Z,3.27
2023-03-24T03:51:20.747Z,2.93
2023-03-24T03:53:59.274Z,2.77
2023-03-24T03:56:31.864Z,2.60
2023-03-24T03:59:36.863Z,2.90
2023-03-24T04:02:21.615Z,3.03
2023-03-24T04:05:14.170Z,3.60
2023-03-24T04:08:10.886Z,3.67
2023-03-24T04:11:26.597Z,3.17
2023-03-24T04:14:44.323Z,3.43
2023-03-24T04:17:50.017Z,4.13
2023-03-24T04:20:46.866Z,3.50
2023-03-24T04:23:26.520Z,3.90
2023-03-24T04:26:03.427Z,3.57
2023-03-24T04:28:37.530Z,3.33
2023-03-24T04:31:10.066Z,3.87
2023-03-24T04:33:42.761Z,3.60
2023-03-24T04:36:18.883Z,3.73
2023-03-24T04:39:11.630Z,3.43
2023-03-24T04:41:47.382Z,3.67
2023-03-24T04:44:23.915Z,3.50
2023-03-24T04:47:27.404Z,3.47
2023-03-24T04:50:16.095Z,3.60
2023-03-24T04:52:44.147Z,3.80
2023-03-24T04:55:32.255Z,4.40
2023-03-24T04:58:00.379Z,4.60
2023-03-24T05:00:28.783Z,4.17
2023-03-24T05:02:58.424Z,4.50
2023-03-24T05:05:28.525Z,4.77
2023-03-24T05:07:57.121Z,4.73
2023-03-24T05:10:25.211Z,5.60
2023-03-24T05:12:57.105Z,4.70
2023-03-24T05:15:27.730Z,5.30
2023-03-24T05:18:06.964Z,4.20
2023-03-24T05:20:34.917Z,5.10
2023-03-24T05:23:12.433Z,4.90
2023-03-24T05:25:41.887Z,4.20
2023-03-24T05:28:10.308Z,5.40
2023-03-24T05:30:38.240Z,6.03
2023-03-24T05:33:36.825Z,5.17
2023-03-24T05:36:05.785Z,5.27
2023-03-24T05:38:34.828Z,4.80
2023-03-24T05:41:03.077Z,4.03
2023-03-24T05:43:37.988Z,4.23
2023-03-24T05:46:11.057Z,4.47
2023-03-24T05:48:40.357Z,4.23
2023-03-24T05:51:17.349Z,3.90
2023-03-24T05:53:46.858Z,4.33
2023-03-24T05:56:40.702Z,4.20
2023-03-24T05:59:27.187Z,3.67
2023-03-24T06:01:56.957Z,4.43
2023-03-24T06:04:39.297Z,3.60
2023-03-24T06:07:15.401Z,4.40
2023-03-24T06:09:46.926Z,4.77
2023-03-24T06:12:16.770Z,3.70
2023-03-24T06:14:57.052Z,4.47
2023-03-24T06:17:25.266Z,3.97
2023-03-24T06:20:04.187Z,3.43
2023-03-24T06:22:51.103Z,3.57
2023-03-24T06:25:27.798Z,3.80
2023-03-24T06:28:12.271Z,3.90
2023-03-24T06:30:41.202Z,3.00
2023-03-24T06:33:09.449Z,3.50
2023-03-24T06:35:38.890Z,3.33
2023-03-24T06:38:11.875Z,3.20
2023-03-24T06:40:40.779Z,3.73
2023-03-24T06:43:09.876Z,2.93
2023-03-24T06:45:40.545Z,2.50
2023-03-24T06:48:12.460Z,2.93
2023-03-24T06:50:41.923Z,2.67
2023-03-24T06:53:11.701Z,3.83
2023-03-24T06:55:40.336Z,3.30
2023-03-24T06:58:10.337Z,2.80
2023-03-24T07:00:38.240Z,3.10
2023-03-24T07:03:26.581Z,2.70
2023-03-24T07:06:14.697Z,2.60
2023-03-24T07:08:44.616Z,2.53
2023-03-24T07:11:13.074Z,2.50
2023-03-24T07:13:48.683Z,2.70
2023-03-24T07:16:17.126Z,2.60
2023-03-24T07:18:46.078Z,2.50
2023-03-24T07:21:16.214Z,2.37
2023-03-24T07:23:45.050Z,2.70
2023-03-24T07:26:16.724Z,4.30
2023-03-24T07:28:50.716Z,3.67
2023-03-24T07:31:49.323Z,4.30
2023-03-24T07:34:17.274Z,4.50
2023-03-24T07:36:47.750Z,4.30
2023-03-24T07:39:18.670Z,4.23
2023-03-24T07:41:48.075Z,4.30
2023-03-24T07:44:26.822Z,4.30
2023-03-24T07:46:54.883Z,4.07
2023-03-24T07:49:28.155Z,4.30
2023-03-24T07:52:06.551Z,4.53
2023-03-24T07:54:44.989Z,4.33
2023-03-24T07:57:27.179Z,4.90
2023-03-24T07:59:55.301Z,4.90
2023-03-24T08:02:43.565Z,4.83
2023-03-24T08:05:27.753Z,5.43
2023-03-24T08:08:17.541Z,4.97
2023-03-24T08:10:46.921Z,5.30
2023-03-24T08:13:18.078Z,5.03
2023-03-24T08:15:46.114Z,4.60
2023-03-24T08:18:14.263Z,5.83
2023-03-24T08:20:42.413Z,5.30
2023-03-24T08:23:11.622Z,5.23
2023-03-24T08:25:41.338Z,5.20
2023-03-24T08:28:09.259Z,5.73
2023-03-24T08:30:37.446Z,5.43
2023-03-24T08:33:06.166Z,5.03
2023-03-24T08:35:38.909Z,5.90
2023-03-24T08:38:08.471Z,5.20
2023-03-24T08:40:37.572Z,5.93
2023-03-24T08:43:09.366Z,5.47
2023-03-24T08:45:40.879Z,6.00
2023-03-24T08:48:10.229Z,6.50
2023-03-24T08:50:44.937Z,6.00
2023-03-24T08:53:13.702Z,5.97
2023-03-24T08:55:43.397Z,6.23
2023-03-24T08:58:15.178Z,6.40
2023-03-24T09:00:44.095Z,6.17
2023-03-24T09:03:14.928Z,6.67
2023-03-24T09:05:44.802Z,5.90
2023-03-24T09:08:17.991Z,5.20
2023-03-24T09:10:46.943Z,5.43
2023-03-24T09:13:16.958Z,5.40
2023-03-24T09:15:51.473Z,5.13
2023-03-24T09:18:23.669Z,5.20
2023-03-24T09:20:52.375Z,5.50
2023-03-24T09:23:20.395Z,5.23
2023-03-24T09:25:50.137Z,5.33
2023-03-24T09:28:20.084Z,5.33
2023-03-24T09:30:48.256Z,5.20
2023-03-24T09:33:16.425Z,5.53
2023-03-24T09:35:44.345Z,5.80
2023-03-24T09:38:12.651Z,5.87
2023-03-24T09:40:41.606Z,6.60
2023-03-24T09:43:15.726Z,5.20
2023-03-24T09:45:50.013Z,5.77
2023-03-24T09:48:21.004Z,5.60
2023-03-24T09:50:53.133Z,5.70
2023-03-24T09:53:28.401Z,5.43
2023-03-24T09:55:56.487Z,5.20
2023-03-24T09:58:26.292Z,6.13
2023-03-24T10:00:58.901Z,5.80
2023-03-24T10:03:26.997Z,5.10
2023-03-24T10:05:57.773Z,6.70
2023-03-24T10:08:29.440Z,6.10
2023-03-24T10:11:02.266Z,6.57
2023-03-24T10:13:38.858Z,7.30
2023-03-24T10:16:12.338Z,7.13
2023-03-24T10:18:44.644Z,4.30
2023-03-24T10:21:17.799Z,2.53
2023-03-24T10:23:50.977Z,1.50
2023-03-24T10:26:30.546Z,1.07
2023-03-24T10:29:07.609Z,1.10
2023-03-24T10:31:38.752Z,1.40
2023-03-24T10:34:07.870Z,1.20
2023-03-24T10:36:36.020Z,1.50
2023-03-24T10:39:16.601Z,1.20
2023-03-24T10:41:47.965Z,1.40
2023-03-24T10:44:16.950Z,1.50
2023-03-24T10:46:48.522Z,1.70
2023-03-24T10:49:17.844Z,1.50
2023-03-24T10:51:46.569Z,1.80
2023-03-24T10:54:17.998Z,1.40
2023-03-24T10:56:47.708Z,1.40
2023-03-24T10:59:27.561Z,1.40
2023-03-24T11:02:10.721Z,1.43
2023-03-24T11:04:40.598Z,1.40
2023-03-24T11:07:16.080Z,1.50
2023-03-24T11:09:44.723Z,1.20
2023-03-24T11:12:27.345Z,1.30
2023-03-24T11:15:14.214Z,1.23
2023-03-24T11:17:54.183Z,1.13
2023-03-24T11:20:26.998Z,1.40
2023-03-24T11:23:02.555Z,0.90
2023-03-24T11:25:33.911Z,0.90
2023-03-24T11:28:05.183Z,1.20
2023-03-24T11:30:36.747Z,1.10
2023-03-24T11:33:07.264Z,1.30
2023-03-24T11:35:41.646Z,0.90
2023-03-24T11:38:10.153Z,0.90
2023-03-24T11:40:38.011Z,1.13
2023-03-24T11:43:08.132Z,0.97
2023-03-24T11:45:39.116Z,1.10
2023-03-24T11:48:27.089Z,1.10
2023-03-24T11:50:56.774Z,1.30
2023-03-24T11:53:28.920Z,1.20
2023-03-24T11:56:00.861Z,1.50
2023-03-24T11:58:31.492Z,1.10
2023-03-24T12:01:04.182Z,1.27
2023-03-24T12:04:07.883Z,1.10
2023-03-24T12:06:43.643Z,1.00
2023-03-24T12:09:32.148Z,1.00
2023-03-24T12:12:19.227Z,1.00
2023-03-24T12:14:56.518Z,1.00
2023-03-24T12:17:25.627Z,1.27
2023-03-24T12:20:16.490Z,1.20
2023-03-24T12:22:53.977Z,1.40
2023-03-24T12:25:35.593Z,0.90
2023-03-24T12:28:27.856Z,1.60
2023-03-24T12:31:04.392Z,3.40
2023-03-24T12:33:44.864Z,1.37
2023-03-24T12:36:32.669Z,1.00
2023-03-24T12:39:05.147Z,1.00
2023-03-24T12:41:55.798Z,0.97
2023-03-24T12:44:51.864Z,1.10
2023-03-24T12:47:31.450Z,1.10
2023-03-24T12:50:10.161Z,1.10
2023-03-24T12:55:35.585Z,1.57
2023-03-24T12:58:10.362Z,1.10
2023-03-24T13:00:41.247Z,1.20
2023-03-24T13:03:13.968Z,1.30
2023-03-24T13:05:45.054Z,1.00
2023-03-24T13:08:17.623Z,1.20
2023-03-24T13:10:47.335Z,1.07
2023-03-24T13:13:18.768Z,1.20
2023-03-24T13:15:48.910Z,1.20
2023-03-24T13:18:28.212Z,1.50
2023-03-24T13:20:57.827Z,0.90
2023-03-24T13:23:45.417Z,1.20
2023-03-24T13:26:21.805Z,1.40
2023-03-24T13:28:59.050Z,1.20
2023-03-24T13:31:28.656Z,1.30
2023-03-24T13:33:57.174Z,1.13
2023-03-24T13:36:34.802Z,1.50
2023-03-24T13:39:08.313Z,1.37
2023-03-24T13:41:39.704Z,1.47
2023-03-24T13:44:10.641Z,1.20
2023-03-24T13:46:39.735Z,1.33
2023-03-24T13:49:11.829Z,1.47
2023-03-24T13:51:42.428Z,1.10
2023-03-24T13:54:15.143Z,1.40
2023-03-24T13:56:54.836Z,1.23
2023-03-24T13:59:28.767Z,1.30
2023-03-24T14:02:19.816Z,1.30
2023-03-24T14:04:48.616Z,1.13
2023-03-24T14:07:35.047Z,1.07
2023-03-24T14:10:28.782Z,1.10
2023-03-24T14:13:02.867Z,1.27
2023-03-24T14:15:31.502Z,1.10
2023-03-24T14:18:16.444Z,1.10
2023-03-24T14:21:00.758Z,0.97
2023-03-24T14:23:37.500Z,1.10
2023-03-24T14:26:09.870Z,1.07
2023-03-24T14:28:40.313Z,1.00
2023-03-24T14:31:21.547Z,1.10
2023-03-24T14:34:03.557Z,0.80
2023-03-24T14:36:35.291Z,1.00
2023-03-24T14:39:23.996Z,1.50
2023-03-24T14:41:55.097Z,1.20
2023-03-24T14:44:55.718Z,1.70
2023-03-24T14:47:27.722Z,1.37
2023-03-24T14:49:59.474Z,1.20
2023-03-24T14:52:30.148Z,1.30
2023-03-24T14:55:00.670Z,1.20
2023-03-24T14:57:33.212Z,1.30
2023-03-24T15:00:12.012Z,1.27
2023-03-24T15:02:43.612Z,1.20
2023-03-24T15:05:23.053Z,1.30
2023-03-24T15:08:10.564Z,1.13
2023-03-24T15:10:42.541Z,1.37
2023-03-24T15:13:33.226Z,1.30
2023-03-24T15:16:02.998Z,1.10
2023-03-24T15:18:31.750Z,1.37
2023-03-24T15:21:00.042Z,1.40
2023-03-24T15:23:29.911Z,1.57
2023-03-24T15:25:59.258Z,1.27
2023-03-24T15:28:32.051Z,0.80
2023-03-24T15:31:01.300Z,1.13
2023-03-24T15:33:31.422Z,1.07
2023-03-24T15:36:04.128Z,1.10
2023-03-24T15:38:36.250Z,1.20
2023-03-24T15:41:05.361Z,1.20
2023-03-24T15:43:35.286Z,1.07
2023-03-24T15:46:12.275Z,1.70
2023-03-24T15:48:42.146Z,1.00
2023-03-24T15:51:12.609Z,1.20
2023-03-24T15:53:44.831Z,1.13
2023-03-24T15:56:32.590Z,1.30
2023-03-24T15:59:15.617Z,1.97
2023-03-24T16:01:46.187Z,1.30
2023-03-24T16:04:17.273Z,0.93
2023-03-24T16:06:52.913Z,1.47
2023-03-24T16:09:27.356Z,1.30
2023-03-24T16:11:56.288Z,1.20
2023-03-24T16:14:28.252Z,1.40
2023-03-24T16:16:57.614Z,1.07
2023-03-24T16:19:26.141Z,1.47
2023-03-24T16:21:55.996Z,1.37
2023-03-24T16:24:25.079Z,1.30
2023-03-24T16:26:55.991Z,1.70
2023-03-24T16:29:29.629Z,1.50
2023-03-24T16:31:59.171Z,1.53
2023-03-24T16:34:27.843Z,1.50
2023-03-24T16:36:56.585Z,1.17
2023-03-24T16:39:26.411Z,1.40
2023-03-24T16:41:55.850Z,1.20
2023-03-24T16:44:25.293Z,1.30
2023-03-24T16:46:56.363Z,1.20
2023-03-24T16:49:28.434Z,1.40
2023-03-24T16:52:00.197Z,1.47
2023-03-24T16:54:31.743Z,1.00
2023-03-24T16:56:59.744Z,1.40
2023-03-24T16:59:27.842Z,1.30
2023-03-24T17:02:04.916Z,1.30
2023-03-24T17:04:34.167Z,1.33
2023-03-24T17:07:03.068Z,1.10
2023-03-24T17:09:32.224Z,1.50
2023-03-24T17:12:02.262Z,1.53
2023-03-24T17:14:31.079Z,1.23
2023-03-24T17:17:04.411Z,1.60
2023-03-24T17:19:33.122Z,1.43
2023-03-24T17:22:02.445Z,1.40
2023-03-24T17:24:30.431Z,1.63
2023-03-24T17:26:58.287Z,1.27
2023-03-24T17:29:26.232Z,1.40
2023-03-24T17:31:54.604Z,1.60
2023-03-24T17:34:24.001Z,1.87
2023-03-24T17:36:52.055Z,1.23
2023-03-24T17:39:20.665Z,1.60
2023-03-24T17:41:48.552Z,1.37
2023-03-24T17:44:16.568Z,1.20
2023-03-24T17:46:44.572Z,1.40
2023-03-24T17:49:12.529Z,1.57
2023-03-24T17:51:41.726Z,1.47
2023-03-24T17:54:11.612Z,2.30
2023-03-24T17:56:39.478Z,1.10
2023-03-24T17:59:07.361Z,1.13
2023-03-24T18:01:39.291Z,1.00
2023-03-24T18:04:07.958Z,1.40
2023-03-24T18:06:36.007Z,1.30
2023-03-24T18:09:05.532Z,1.03
2023-03-24T18:11:33.451Z,1.43
2023-03-24T18:14:01.420Z,1.60
2023-03-24T18:16:30.737Z,1.63
2023-03-24T18:19:00.587Z,1.70
2023-03-24T18:21:28.645Z,1.43
2023-03-24T18:23:57.236Z,1.30
2023-03-24T18:26:26.900Z,1.40
2023-03-24T18:28:54.849Z,1.40
2023-03-24T18:31:26.353Z,1.60
2023-03-24T18:33:55.535Z,1.90
2023-03-24T18:36:26.580Z,1.43
2023-03-24T18:38:57.713Z,1.20
2023-03-24T18:41:30.658Z,1.60
2023-03-24T18:43:59.986Z,1.27
2023-03-24T18:46:28.458Z,1.57
2023-03-24T18:48:56.697Z,1.83
2023-03-24T18:51:26.296Z,1.53
2023-03-24T18:53:54.570Z,1.43
2023-03-24T18:56:23.317Z,1.63
2023-03-24T18:58:53.091Z,1.50
2023-03-24T19:01:22.858Z,1.80
2023-03-24T19:03:52.070Z,1.40
2023-03-24T19:06:26.297Z,1.43
2023-03-24T19:08:54.587Z,1.40
2023-03-24T19:11:25.434Z,1.53
2023-03-24T19:13:56.539Z,1.97
2023-03-24T19:16:25.133Z,1.60
2023-03-24T19:18:53.965Z,2.30
2023-03-24T19:21:23.157Z,1.50
2023-03-24T19:23:53.141Z,1.67
2023-03-24T19:26:21.709Z,1.40
2023-03-24T19:28:50.295Z,2.00
2023-03-24T19:31:20.890Z,2.47
2023-03-24T19:33:51.545Z,2.00
2023-03-24T19:36:19.925Z,2.00
2023-03-24T19:38:47.864Z,1.70
2023-03-24T19:41:16.286Z,1.50
2023-03-24T19:43:44.168Z,1.33
2023-03-24T19:46:12.167Z,1.53
2023-03-24T19:48:41.456Z,1.93
2023-03-24T19:51:09.332Z,1.60
2023-03-24T19:53:37.207Z,1.43
2023-03-24T19:56:05.498Z,1.50
2023-03-24T19:58:33.381Z,1.70
2023-03-24T20:01:01.246Z,1.50
2023-03-24T20:03:29.287Z,1.53
2023-03-24T20:06:04.368Z,1.70
2023-03-24T20:08:32.223Z,1.57
2023-03-24T20:11:00.262Z,1.67
2023-03-24T20:13:28.481Z,1.97
2023-03-24T20:15:56.433Z,1.83
2023-03-24T20:18:24.349Z,1.57
2023-03-24T20:20:52.298Z,1.60
2023-03-24T20:23:22.275Z,1.70
2023-03-24T20:25:50.906Z,1.23
2023-03-24T20:28:19.141Z,1.30
2023-03-24T20:30:47.120Z,1.70
2023-03-24T20:33:15.127Z,1.27
2023-03-24T20:35:43.304Z,1.10
2023-03-24T20:38:11.438Z,1.67
2023-03-24T20:40:40.798Z,1.80
2023-03-24T20:43:08.758Z,1.73
2023-03-24T20:45:36.735Z,2.07
2023-03-24T20:48:04.988Z,1.80
2023-03-24T20:50:33.316Z,1.80
2023-03-24T20:53:01.123Z,1.80
2023-03-24T20:55:28.942Z,2.10
2023-03-24T20:57:58.151Z,1.73
2023-03-24T21:00:26.112Z,2.13
2023-03-24T21:02:57.587Z,2.03
2023-03-24T21:05:25.519Z,1.50
2023-03-24T21:07:53.808Z,1.57
2023-03-24T21:10:21.593Z,1.50
2023-03-24T21:12:52.864Z,1.40
2023-03-24T21:15:24.892Z,1.10
2023-03-24T21:17:53.412Z,1.40
2023-03-24T21:20:21.525Z,1.27
2023-03-24T21:22:55.028Z,1.30
2023-03-24T21:25:23.533Z,1.03
2023-03-24T21:27:51.832Z,1.20
2023-03-24T21:30:20.183Z,1.10
2023-03-24T21:32:52.077Z,1.40
2023-03-24T21:35:20.773Z,1.20
2023-03-24T21:37:49.115Z,1.30
2023-03-24T21:40:19.066Z,1.03
2023-03-24T21:42:50.840Z,1.30
2023-03-24T21:45:20.405Z,1.30
2023-03-24T21:47:50.592Z,1.07
2023-03-24T21:50:23.211Z,1.23
2023-03-24T21:52:52.364Z,1.30
2023-03-24T21:55:21.493Z,0.90
2023-03-24T21:57:51.084Z,1.20
2023-03-24T22:00:21.484Z,1.00
2023-03-24T22:02:52.498Z,1.40
2023-03-24T22:05:22.092Z,1.10
2023-03-24T22:07:50.394Z,1.17
2023-03-24T22:10:22.609Z,1.00
2023-03-24T22:12:51.193Z,0.93
2023-03-24T22:15:19.149Z,1.20
2023-03-24T22:17:47.016Z,1.10
2023-03-24T22:20:16.742Z,0.90
2023-03-24T22:22:44.862Z,0.90
2023-03-24T22:25:14.892Z,1.00
2023-03-24T22:27:42.780Z,1.07
2023-03-24T22:30:13.274Z,1.00
2023-03-24T22:32:41.652Z,1.10
2023-03-24T22:35:10.454Z,1.00
2023-03-24T22:37:39.642Z,0.93
2023-03-24T22:40:09.254Z,1.13
2023-03-24T22:42:37.205Z,0.90
2023-03-24T22:45:05.910Z,1.20
2023-03-24T22:47:33.878Z,0.93
2023-03-24T22:50:01.713Z,1.20
2023-03-24T22:52:29.545Z,1.00
2023-03-24T22:54:58.718Z,1.10
2023-03-24T22:57:26.705Z,1.40
2023-03-24T22:59:54.605Z,1.07
2023-03-24T23:02:24.632Z,1.20
2023-03-24T23:04:55.088Z,1.17
2023-03-24T23:07:23.321Z,1.30
2023-03-24T23:09:53.269Z,1.10
2023-03-24T23:12:24.994Z,1.30
2023-03-24T23:14:54.405Z,1.00
2023-03-24T23:17:24.165Z,2.00
2023-03-24T23:19:52.937Z,1.60
2023-03-24T23:22:21.328Z,1.23
2023-03-24T23:24:49.225Z,1.20
2023-03-24T23:27:22.405Z,1.10
2023-03-24T23:29:50.550Z,1.10
2023-03-24T23:32:18.527Z,1.40
2023-03-24T23:34:48.709Z,1.20
2023-03-24T23:37:18.290Z,1.20
2023-03-24T23:39:50.279Z,1.20
2023-03-24T23:42:18.450Z,1.13
2023-03-24T23:44:47.626Z,1.67
2023-03-24T23:47:15.598Z,1.10
2023-03-24T23:49:43.575Z,1.20
2023-03-24T23:52:11.518Z,1.33
2023-03-24T23:54:39.360Z,0.93
2023-03-24T23:57:07.235Z,0.90
2023-03-24T23:59:35.300Z,1.10
